Time;durP1;ratioP1;P1;durP2;ratioP2;P2;SDS_P1;SDS_P2;PMS_P1;PMS_P2;Temp;Humidity;BMP_temperature;BMP_pressure;BME280_temperature;BME280_humidity;BME280_pressure;Samples;Min_cycle;Max_cycle;Signal;HPM_P1;HPM_P2
2023/04/21 00:01:48;;;;;;;36.83;13.93;;;;;;;-144.73;100.00;54378.97;5037442;28;20039;-69
2023/04/21 00:04:14;;;;;;;33.97;15.32;;;;;;;-144.73;100.00;54370.75;5031518;28;20035;-71
2023/04/21 00:06:40;;;;;;;35.78;14.82;;;;;;;-144.73;100.00;54387.19;5032723;28;20451;-70
2023/04/21 00:09:07;;;;;;;36.03;14.63;;;;;;;-144.73;100.00;54391.28;5039428;28;20024;-71
2023/04/21 00:11:32;;;;;;;52.45;16.20;;;;;;;-144.73;100.00;54391.28;5032248;28;20029;-71
2023/04/21 00:13:58;;;;;;;35.58;14.00;;;;;;;-144.73;100.00;54438.50;5032295;28;20078;-71
2023/04/21 00:16:23;;;;;;;34.55;14.43;;;;;;;-144.73;100.00;54374.84;5037654;28;20048;-71
2023/04/21 00:18:49;;;;;;;43.97;13.90;;;;;;;-144.73;100.00;54407.69;5032688;28;20365;-72
2023/04/21 00:21:15;;;;;;;35.90;11.93;;;;;;;-144.73;100.00;54378.97;5039506;28;20037;-71
2023/04/21 00:23:40;;;;;;;37.17;14.57;;;;;;;-144.73;100.00;54407.69;5030080;28;20032;-70
2023/04/21 00:26:06;;;;;;;27.23;13.45;;;;;;;-144.73;100.00;54407.69;5037502;28;20029;-71
2023/04/21 00:28:31;;;;;;;30.52;14.35;;;;;;;-144.73;100.00;54387.19;5046363;28;20111;-71
2023/04/21 00:30:57;;;;;;;43.65;15.80;;;;;;;-144.73;100.00;54385.13;5053358;28;20047;-73
2023/04/21 00:33:22;;;;;;;39.42;13.70;;;;;;;-144.73;100.00;54407.69;5043384;28;20456;-71
2023/04/21 00:35:47;;;;;;;30.20;13.40;;;;;;;-144.73;100.00;54436.44;5035396;28;20048;-72
2023/04/21 00:38:13;;;;;;;43.50;13.45;;;;;;;-144.73;100.00;54391.28;5033243;28;20047;-71
2023/04/21 00:40:39;;;;;;;25.92;13.90;;;;;;;-144.73;100.00;54407.69;5027091;28;20044;-71
2023/04/21 00:43:07;;;;;;;31.25;14.15;;;;;;;-144.73;100.00;54420.00;5044021;28;20111;-72
2023/04/21 00:45:32;;;;;;;35.72;13.60;;;;;;;-144.73;100.00;54387.19;5035060;28;20033;-72
2023/04/21 00:47:58;;;;;;;40.40;12.98;;;;;;;-144.73;100.00;54407.69;5033854;28;20404;-71
2023/04/21 00:50:24;;;;;;;27.50;13.35;;;;;;;-144.73;100.00;54415.91;5035349;28;20044;-71
2023/04/21 00:52:50;;;;;;;34.28;14.35;;;;;;;-144.73;100.00;54420.00;5035101;28;20025;-72
2023/04/21 00:55:15;;;;;;;34.60;13.88;;;;;;;-144.73;100.00;54456.97;5034952;28;20091;-71
2023/04/21 00:57:41;;;;;;;31.33;14.82;;;;;;;-144.73;100.00;54417.97;5035672;28;20071;-72
2023/04/21 01:00:07;;;;;;;37.97;13.35;;;;;;;-144.73;100.00;54399.50;5037224;28;20043;-71
2023/04/21 01:02:37;;;;;;;34.00;14.45;;;;;;;-144.73;100.00;54399.50;5041185;28;20021;-71
2023/04/21 01:05:07;;;;;;;38.60;15.75;;;;;;;-144.73;100.00;54395.38;5035027;28;20029;-71
2023/04/21 01:07:33;;;;;;;31.75;13.32;;;;;;;-144.73;100.00;54411.81;5029685;28;20059;-71
2023/04/21 01:09:59;;;;;;;36.97;14.55;;;;;;;-144.73;100.00;54350.22;5050328;28;20136;-72
2023/04/21 01:12:27;;;;;;;33.05;14.77;;;;;;;-144.73;100.00;54428.22;5044194;28;20040;-72
2023/04/21 01:14:52;;;;;;;51.38;15.07;;;;;;;-144.73;100.00;54395.38;5040598;28;20025;-72
2023/04/21 01:17:18;;;;;;;35.20;13.82;;;;;;;-144.73;100.00;54411.81;5031250;28;20071;-71
2023/04/21 01:19:44;;;;;;;40.17;14.50;;;;;;;-144.73;100.00;54436.44;5046972;28;20037;-72
2023/04/21 01:22:11;;;;;;;30.83;13.73;;;;;;;-144.73;100.00;54407.69;5052982;28;20486;-71
2023/04/21 01:24:39;;;;;;;32.25;14.05;;;;;;;-144.73;100.00;54387.19;5052717;28;20037;-71
2023/04/21 01:27:10;;;;;;;40.00;14.35;;;;;;;-144.73;100.00;54368.69;5035112;28;20028;-71
2023/04/21 01:29:35;;;;;;;47.33;14.15;;;;;;;-144.73;100.00;54407.69;5039180;28;20037;-71
2023/04/21 01:32:11;;;;;;;33.75;13.65;;;;;;;-144.73;100.00;54415.91;5052379;28;20077;-72
2023/04/21 01:34:37;;;;;;;39.42;14.30;;;;;;;-144.73;100.00;54370.75;5052047;28;20053;-71
2023/04/21 01:37:07;;;;;;;33.63;13.65;;;;;;;-144.73;100.00;54411.81;5034763;28;20499;-71
2023/04/21 01:39:32;;;;;;;32.70;13.98;;;;;;;-144.73;100.00;54411.81;5050743;28;20025;-72
2023/04/21 01:42:01;;;;;;;38.40;14.05;;;;;;;-144.73;100.00;54395.38;5032936;28;20025;-71
2023/04/21 01:44:26;;;;;;;32.30;14.48;;;;;;;-144.73;100.00;54383.06;5052041;28;20029;-71
2023/04/21 01:46:52;;;;;;;28.08;13.23;;;;;;;-144.73;100.00;54395.38;5052045;28;20148;-71
2023/04/21 01:49:17;;;;;;;25.48;13.27;;;;;;;-144.73;100.00;54354.34;5051702;28;20021;-71
2023/04/21 01:51:43;;;;;;;36.10;14.80;;;;;;;-144.73;100.00;54387.19;5034473;28;20048;-72
2023/04/21 01:54:08;;;;;;;33.35;12.85;;;;;;;-144.73;100.00;54407.69;5033687;28;20112;-71
2023/04/21 01:56:33;;;;;;;37.53;13.88;;;;;;;-144.73;100.00;54395.38;5062930;28;20070;-71
2023/04/21 01:58:59;;;;;;;29.95;13.70;;;;;;;-144.73;100.00;54383.06;5031492;28;20033;-72
2023/04/21 02:01:24;;;;;;;34.85;13.48;;;;;;;-144.73;100.00;54420.00;5051940;28;20024;-71
2023/04/21 02:03:49;;;;;;;26.42;13.50;;;;;;;-144.73;100.00;54391.28;5034578;28;20044;-72
2023/04/21 02:06:16;;;;;;;33.85;12.90;;;;;;;-144.73;100.00;54422.06;5051408;28;20049;-71
2023/04/21 02:08:42;;;;;;;34.72;13.77;;;;;;;-144.73;100.00;54407.69;5042039;28;20086;-69
2023/04/21 02:11:07;;;;;;;33.50;13.18;;;;;;;-144.73;100.00;54444.66;5039687;28;20045;-70
2023/04/21 02:13:32;;;;;;;26.98;13.60;;;;;;;-144.73;100.00;54411.81;5039798;28;20020;-70
2023/04/21 02:15:58;;;;;;;35.85;13.85;;;;;;;-144.73;100.00;54362.53;5040725;28;20037;-70
2023/04/21 02:18:23;;;;;;;29.45;12.70;;;;;;;-144.73;100.00;54422.06;5033765;28;20475;-70
2023/04/21 02:20:48;;;;;;;39.78;14.25;;;;;;;-144.73;100.00;54395.38;5031402;28;20040;-70
2023/04/21 02:23:14;;;;;;;36.22;14.98;;;;;;;-144.73;100.00;54370.75;5033896;28;20025;-70
2023/04/21 02:25:39;;;;;;;38.53;13.80;;;;;;;-144.73;100.00;54399.50;5056335;28;20033;-70
2023/04/21 02:28:04;;;;;;;29.15;12.40;;;;;;;-144.73;100.00;54378.97;5050742;28;20071;-70
2023/04/21 02:30:30;;;;;;;30.95;12.90;;;;;;;-144.73;100.00;54444.66;5037780;28;20033;-70
2023/04/21 02:32:55;;;;;;;36.25;12.88;;;;;;;-144.73;100.00;54442.59;5038455;28;20099;-70
2023/04/21 02:35:21;;;;;;;28.88;13.35;;;;;;;-144.73;100.00;54374.84;5054637;28;20029;-70
2023/04/21 02:37:46;;;;;;;27.73;12.68;;;;;;;-144.73;100.00;54374.84;5034741;28;20024;-71
2023/04/21 02:40:11;;;;;;;33.05;12.63;;;;;;;-144.73;100.00;54381.00;5032116;28;20037;-70
2023/04/21 02:42:37;;;;;;;36.13;13.07;;;;;;;-144.73;100.00;54383.06;5036519;28;20029;-70
2023/04/21 02:45:02;;;;;;;34.05;13.27;;;;;;;-144.73;100.00;54397.44;5032168;28;20029;-69
2023/04/21 02:47:28;;;;;;;32.17;12.63;;;;;;;-144.73;100.00;54391.28;5033126;28;20107;-71
2023/04/21 02:49:53;;;;;;;34.35;12.90;;;;;;;-144.73;100.00;54407.69;5035057;28;20094;-71
2023/04/21 02:52:18;;;;;;;39.30;13.07;;;;;;;-144.73;100.00;54366.66;5033156;28;20024;-70
2023/04/21 02:54:44;;;;;;;28.60;12.13;;;;;;;-144.73;100.00;54368.69;5050475;28;20047;-70
2023/04/21 02:57:09;;;;;;;38.33;12.25;;;;;;;-144.73;100.00;54370.75;5051602;28;20024;-70
2023/04/21 02:59:34;;;;;;;27.02;12.23;;;;;;;-144.73;100.00;54428.22;5050191;28;20037;-70
2023/04/21 03:02:00;;;;;;;36.25;12.88;;;;;;;-144.73;100.00;54469.28;5037995;28;20054;-70
2023/04/21 03:04:25;;;;;;;32.17;12.40;;;;;;;-144.73;100.00;54411.81;5036959;28;20033;-70
2023/04/21 03:06:51;;;;;;;38.47;12.50;;;;;;;-144.73;100.00;54362.53;5032077;28;20032;-70
2023/04/21 03:09:16;;;;;;;29.88;12.70;;;;;;;-144.73;100.00;54395.38;5049457;28;20096;-70
2023/04/21 03:11:42;;;;;;;38.38;12.60;;;;;;;-144.73;100.00;54407.69;5050344;28;20035;-71
2023/04/21 03:14:07;;;;;;;28.25;12.68;;;;;;;-144.73;100.00;54407.69;5031776;28;20029;-71
2023/04/21 03:16:33;;;;;;;27.45;11.35;;;;;;;-144.73;100.00;54391.28;5032714;28;20025;-71
2023/04/21 03:18:58;;;;;;;36.70;11.93;;;;;;;-144.73;100.00;54391.28;5035990;28;20499;-72
2023/04/21 03:21:23;;;;;;;30.38;12.65;;;;;;;-144.73;100.00;54456.97;5058930;28;20468;-70
2023/04/21 03:23:49;;;;;;;36.13;13.05;;;;;;;-144.73;100.00;54411.81;5050567;28;20039;-70
2023/04/21 03:26:15;;;;;;;28.65;12.23;;;;;;;-144.73;100.00;54407.69;5041383;28;20048;-72
2023/04/21 03:28:40;;;;;;;32.70;12.88;;;;;;;-144.73;100.00;54407.69;5030392;28;20096;-73
2023/04/21 03:31:06;;;;;;;25.75;12.57;;;;;;;-144.73;100.00;54407.69;5031704;28;20112;-72
2023/04/21 03:33:31;;;;;;;29.55;11.07;;;;;;;-144.73;100.00;54415.91;5037441;28;20032;-73
2023/04/21 03:35:56;;;;;;;36.88;12.82;;;;;;;-144.73;100.00;54411.81;5034416;28;20056;-73
2023/04/21 03:38:22;;;;;;;28.55;12.32;;;;;;;-144.73;100.00;54411.81;5030152;28;20053;-74
2023/04/21 03:40:47;;;;;;;36.67;13.52;;;;;;;-144.73;100.00;54385.13;5034193;28;20061;-74
2023/04/21 03:43:12;;;;;;;29.25;11.40;;;;;;;-144.73;100.00;54383.06;5049513;28;20044;-72
2023/04/21 03:45:38;;;;;;;33.08;12.35;;;;;;;-144.73;100.00;54428.22;5033618;28;20044;-72
2023/04/21 03:48:04;;;;;;;27.63;12.55;;;;;;;-144.73;100.00;54415.91;5034919;28;20024;-72
2023/04/21 03:50:29;;;;;;;29.15;12.38;;;;;;;-144.73;100.00;54450.81;5049467;28;20086;-72
2023/04/21 03:52:54;;;;;;;24.23;11.48;;;;;;;-144.73;100.00;54399.50;5049701;28;20040;-72
2023/04/21 03:55:20;;;;;;;26.52;12.07;;;;;;;-144.73;100.00;54397.44;5036947;28;20430;-71
2023/04/21 03:57:45;;;;;;;30.73;13.98;;;;;;;-144.73;100.00;54417.97;5053509;28;20164;-70
2023/04/21 04:00:11;;;;;;;22.50;12.15;;;;;;;-144.73;100.00;54415.91;5042498;28;20086;-72
2023/04/21 04:02:37;;;;;;;27.50;12.10;;;;;;;-144.73;100.00;54358.44;5057058;28;20017;-72
2023/04/21 04:05:04;;;;;;;32.53;12.57;;;;;;;-144.73;100.00;54415.91;5038946;28;20051;-72
2023/04/21 04:07:31;;;;;;;24.50;12.40;;;;;;;-144.73;100.00;54411.81;5036241;28;20361;-72
2023/04/21 04:09:56;;;;;;;23.95;11.90;;;;;;;-144.73;100.00;54415.91;5029097;28;20388;-72
2023/04/21 04:12:21;;;;;;;31.30;13.07;;;;;;;-144.73;100.00;54428.22;5052844;28;20029;-72
2023/04/21 04:14:47;;;;;;;25.38;12.13;;;;;;;-144.73;100.00;54420.00;5031859;28;20080;-72
2023/04/21 04:17:12;;;;;;;34.45;12.35;;;;;;;-144.73;100.00;54395.38;5034516;28;20096;-72
2023/04/21 04:19:37;;;;;;;33.92;12.20;;;;;;;-144.73;100.00;54428.22;5031185;28;20048;-72
2023/04/21 04:22:03;;;;;;;27.55;11.07;;;;;;;-144.73;100.00;54411.81;5032013;28;20021;-72
2023/04/21 04:24:28;;;;;;;26.35;12.60;;;;;;;-144.73;100.00;54407.69;5053677;28;20033;-72
2023/04/21 04:26:54;;;;;;;26.13;11.43;;;;;;;-144.73;100.00;54387.19;5050278;28;20017;-72
2023/04/21 04:29:21;;;;;;;31.05;12.98;;;;;;;-144.73;100.00;54407.69;5028987;28;20025;-72
2023/04/21 04:31:48;;;;;;;27.27;12.10;;;;;;;-144.73;100.00;54407.69;5049681;28;20021;-72
2023/04/21 04:34:14;;;;;;;27.23;11.50;;;;;;;-144.73;100.00;54387.19;5030706;28;20021;-72
2023/04/21 04:36:41;;;;;;;31.40;12.50;;;;;;;-144.73;100.00;54432.31;5033410;28;20078;-72
2023/04/21 04:39:07;;;;;;;30.77;13.25;;;;;;;-144.73;100.00;54424.13;5032773;28;20078;-72
2023/04/21 04:41:32;;;;;;;34.70;12.07;;;;;;;-144.73;100.00;54436.44;5046854;28;20116;-73
2023/04/21 04:43:58;;;;;;;26.60;11.85;;;;;;;-144.73;100.00;54411.81;5049591;28;20096;-74
2023/04/21 04:46:24;;;;;;;25.35;13.48;;;;;;;-144.73;100.00;54446.69;5049423;28;20155;-71
2023/04/21 04:48:50;;;;;;;27.20;12.20;;;;;;;-144.73;100.00;54413.84;5036494;28;20037;-73
2023/04/21 04:51:16;;;;;;;23.40;11.68;;;;;;;-144.73;100.00;54391.28;5036990;28;20037;-71
2023/04/21 04:53:41;;;;;;;20.25;12.05;;;;;;;-144.73;100.00;54387.19;5055722;28;20032;-73
2023/04/21 04:56:06;;;;;;;25.85;12.15;;;;;;;-144.73;100.00;54448.75;5034003;28;20037;-73
2023/04/21 04:58:32;;;;;;;39.50;12.98;;;;;;;-144.73;100.00;54444.66;5032426;28;20041;-71
2023/04/21 05:00:57;;;;;;;34.25;11.50;;;;;;;-144.73;100.00;54411.81;5048647;28;20041;-73
2023/04/21 05:03:22;;;;;;;24.75;12.52;;;;;;;-144.73;100.00;54391.28;5052606;28;20391;-73
2023/04/21 05:05:48;;;;;;;24.52;11.15;;;;;;;-144.73;100.00;54424.13;5049729;28;20029;-72
2023/04/21 05:08:14;;;;;;;25.10;11.60;;;;;;;-144.73;100.00;54428.22;5031578;28;20029;-72
2023/04/21 05:10:39;;;;;;;29.58;12.93;;;;;;;-144.73;100.00;54446.69;5050777;28;20037;-73
2023/04/21 05:13:05;;;;;;;33.10;12.60;;;;;;;-144.73;100.00;54399.50;5048000;28;20033;-72
2023/04/21 05:15:31;;;;;;;31.17;12.07;;;;;;;-144.73;100.00;54415.91;5029152;28;20045;-73
2023/04/21 05:17:56;;;;;;;33.83;12.27;;;;;;;-144.73;100.00;54432.31;5035598;28;20093;-72
2023/04/21 05:20:21;;;;;;;23.67;11.60;;;;;;;-144.73;100.00;54387.19;5051335;28;20041;-72
2023/04/21 05:22:47;;;;;;;28.58;12.77;;;;;;;-144.73;100.00;54415.91;5034894;28;20060;-72
2023/04/21 05:25:16;;;;;;;26.88;10.93;;;;;;;-144.73;100.00;54407.69;5039271;28;20119;-72
2023/04/21 05:27:42;;;;;;;24.83;10.98;;;;;;;-144.73;100.00;54428.22;5050356;28;20025;-72
2023/04/21 05:30:08;;;;;;;23.85;11.05;;;;;;;-144.73;100.00;54391.28;5035412;28;20044;-72
2023/04/21 05:32:33;;;;;;;24.15;11.00;;;;;;;-144.73;100.00;54420.00;5045725;28;20391;-72
2023/04/21 05:34:59;;;;;;;26.52;12.15;;;;;;;-144.73;100.00;54456.97;5062833;28;20037;-72
2023/04/21 05:37:25;;;;;;;22.48;10.70;;;;;;;-144.73;100.00;54395.38;5054843;28;20055;-72
2023/04/21 05:39:51;;;;;;;25.25;11.23;;;;;;;-144.73;100.00;54438.50;5031347;28;20029;-72
2023/04/21 05:42:17;;;;;;;27.92;12.27;;;;;;;-144.73;100.00;54393.34;5052466;28;20051;-72
2023/04/21 05:44:42;;;;;;;27.23;11.02;;;;;;;-144.73;100.00;54428.22;5055593;28;20044;-73
2023/04/21 05:47:08;;;;;;;25.02;10.85;;;;;;;-144.73;100.00;54424.13;5037310;28;20110;-72
2023/04/21 05:49:33;;;;;;;24.40;11.55;;;;;;;-144.73;100.00;54415.91;5033186;28;20036;-72
2023/04/21 05:51:58;;;;;;;25.70;10.77;;;;;;;-144.73;100.00;54428.22;5036878;28;20368;-72
2023/04/21 05:54:24;;;;;;;22.23;10.00;;;;;;;-144.73;100.00;54387.19;5036518;28;20037;-72
2023/04/21 05:56:49;;;;;;;23.70;10.23;;;;;;;-144.73;100.00;54391.28;5052077;28;20032;-72
2023/04/21 05:59:15;;;;;;;30.55;11.00;;;;;;;-144.73;100.00;54407.69;5029081;28;20029;-73
2023/04/21 06:01:40;;;;;;;20.48;10.98;;;;;;;-144.73;100.00;54360.50;5051733;28;21352;-72
2023/04/21 06:04:06;;;;;;;30.75;10.80;;;;;;;-144.73;100.00;54428.22;5033805;28;20063;-72
2023/04/21 06:06:31;;;;;;;19.50;10.13;;;;;;;-144.73;100.00;54438.50;5053820;28;20032;-72
2023/04/21 06:08:56;;;;;;;27.27;10.95;;;;;;;-144.73;100.00;54428.22;5057699;28;20067;-71
2023/04/21 06:11:22;;;;;;;24.25;9.82;;;;;;;-144.73;100.00;54428.22;5030827;28;20040;-72
2023/04/21 06:13:48;;;;;;;28.65;11.90;;;;;;;-144.73;100.00;54432.31;5034304;28;20052;-72
2023/04/21 06:16:14;;;;;;;24.05;10.57;;;;;;;-144.73;100.00;54424.13;5053732;28;20033;-73
2023/04/21 06:18:39;;;;;;;21.98;10.40;;;;;;;-144.73;100.00;54432.31;5054528;28;20033;-72
2023/04/21 06:21:04;;;;;;;25.80;11.15;;;;;;;-144.73;100.00;54391.28;5033378;28;20073;-73
2023/04/21 06:23:30;;;;;;;24.48;10.85;;;;;;;-144.73;100.00;54411.81;5051913;28;20025;-73
2023/04/21 06:26:05;;;;;;;27.20;10.57;;;;;;;-144.73;100.00;54430.28;5032869;28;20040;-72
2023/04/21 06:28:32;;;;;;;26.17;10.55;;;;;;;-144.73;99.87;54424.13;5036865;28;20116;-72
2023/04/21 06:31:02;;;;;;;26.65;11.15;;;;;;;-144.73;99.75;54376.91;5053962;28;20029;-69
2023/04/21 06:33:28;;;;;;;19.50;9.70;;;;;;;-144.73;99.81;54424.13;5027925;28;20036;-69
2023/04/21 06:35:54;;;;;;;22.77;10.43;;;;;;;-144.73;98.89;54378.97;5026655;28;20036;-69
2023/04/21 06:38:19;;;;;;;23.58;10.20;;;;;;;-144.73;98.77;54374.84;5031475;28;20103;-69
2023/04/21 06:40:45;;;;;;;24.13;10.43;;;;;;;-144.73;98.34;54415.91;5047069;28;20037;-69
2023/04/21 06:43:10;;;;;;;20.52;9.18;;;;;;;-144.73;98.62;54422.06;5025777;28;20100;-69
2023/04/21 06:45:36;;;;;;;19.92;9.50;;;;;;;-144.73;97.66;54407.69;5047441;28;20029;-69
2023/04/21 06:48:01;;;;;;;22.85;10.75;;;;;;;-144.73;97.22;54422.06;5032634;28;20036;-69
2023/04/21 06:50:26;;;;;;;23.25;9.40;;;;;;;-144.73;97.27;54420.00;5031324;28;20025;-69
2023/04/21 06:52:52;;;;;;;26.20;9.88;;;;;;;-144.73;96.41;54444.66;5049827;28;20023;-69
2023/04/21 06:55:17;;;;;;;18.60;9.68;;;;;;;-144.73;95.95;54399.50;5048240;28;20079;-69
2023/04/21 06:57:43;;;;;;;20.88;10.10;;;;;;;-144.73;95.24;54422.06;5052026;28;20024;-68
2023/04/21 07:00:09;;;;;;;23.27;10.10;;;;;;;-144.73;95.36;54415.91;5047550;28;20472;-69
2023/04/21 07:02:34;;;;;;;21.80;9.93;;;;;;;-144.73;94.55;54391.28;5049654;28;20021;-68
2023/04/21 07:04:59;;;;;;;31.77;10.93;;;;;;;-144.73;93.97;54428.22;5050379;28;20036;-69
2023/04/21 07:07:25;;;;;;;24.20;9.25;;;;;;;-144.73;92.99;54456.97;5038779;28;20017;-69
2023/04/21 07:09:50;;;;;;;18.15;8.32;;;;;;;-144.73;91.92;54391.28;5034326;28;20025;-69
2023/04/21 07:12:16;;;;;;;28.85;10.10;;;;;;;-144.73;92.55;54407.69;5032468;28;20044;-69
2023/04/21 07:14:41;;;;;;;23.23;9.18;;;;;;;-144.73;91.76;54407.69;5031774;28;20037;-69
2023/04/21 07:17:06;;;;;;;19.35;9.20;;;;;;;-144.73;90.63;54391.28;5050152;28;20033;-69
2023/04/21 07:19:32;;;;;;;26.10;9.82;;;;;;;-144.73;91.64;54450.81;5051961;28;20028;-69
2023/04/21 07:21:57;;;;;;;23.95;9.68;;;;;;;-144.73;91.23;54391.28;5059624;28;20027;-69
2023/04/21 07:24:23;;;;;;;19.15;9.00;;;;;;;-144.73;90.80;54383.06;5017600;28;20029;-70
2023/04/21 07:26:48;;;;;;;16.98;9.48;;;;;;;-144.73;90.39;54424.13;5026253;28;20017;-69
2023/04/21 07:29:14;;;;;;;23.40;9.38;;;;;;;-144.73;90.11;54378.97;5023686;28;20033;-69
2023/04/21 07:31:39;;;;;;;22.42;9.48;;;;;;;-144.73;89.74;54446.69;5047405;28;20017;-69
2023/04/21 07:34:04;;;;;;;14.77;8.13;;;;;;;-144.73;86.99;54395.38;5031720;28;20025;-69
2023/04/21 07:36:30;;;;;;;17.52;9.32;;;;;;;-144.73;86.28;54399.50;5023175;28;20033;-69
2023/04/21 07:38:55;;;;;;;24.42;9.80;;;;;;;-144.73;86.38;54383.06;5022676;28;20539;-68
2023/04/21 07:41:21;;;;;;;21.73;9.13;;;;;;;-144.73;84.85;54422.06;5022543;28;20036;-69
2023/04/21 07:43:46;;;;;;;19.92;9.00;;;;;;;-144.73;84.30;54391.28;5042458;28;20017;-70
2023/04/21 07:46:12;;;;;;;18.67;9.27;;;;;;;-144.73;82.95;54407.69;5023916;28;20056;-68
2023/04/21 07:48:38;;;;;;;18.70;8.95;;;;;;;-144.73;83.13;54387.19;5024608;28;20051;-70
2023/04/21 07:51:04;;;;;;;21.10;8.77;;;;;;;-144.73;82.48;54387.19;5025516;28;20112;-69
2023/04/21 07:53:29;;;;;;;19.30;8.95;;;;;;;-144.73;81.88;54366.66;5035462;28;20115;-69
2023/04/21 07:55:55;;;;;;;20.92;8.85;;;;;;;-144.73;81.03;54374.84;5040670;28;20675;-69
2023/04/21 07:58:21;;;;;;;21.67;8.88;;;;;;;-144.73;78.71;54364.59;5040885;28;20049;-70
2023/04/21 08:00:47;;;;;;;22.10;8.35;;;;;;;-144.73;79.60;54378.97;5040416;28;20037;-70
2023/04/21 08:03:13;;;;;;;17.27;8.30;;;;;;;-144.73;78.25;54407.69;5044841;28;20071;-70
2023/04/21 08:05:39;;;;;;;19.08;8.48;;;;;;;-144.73;77.56;54346.13;5022202;28;20108;-70
2023/04/21 08:08:04;;;;;;;20.30;8.48;;;;;;;-144.73;77.32;54432.31;5041995;28;20108;-69
2023/04/21 08:10:30;;;;;;;20.30;7.97;;;;;;;-144.73;76.10;54366.66;5021384;28;20124;-70
2023/04/21 08:12:55;;;;;;;19.00;8.45;;;;;;;-144.73;75.36;54383.06;5021560;28;20037;-69
2023/04/21 08:15:21;;;;;;;19.70;8.52;;;;;;;-144.73;76.50;54362.53;5042469;28;20037;-70
2023/04/21 08:17:46;;;;;;;25.10;9.48;;;;;;;-144.73;76.81;54436.44;5024664;28;20112;-69
2023/04/21 08:20:12;;;;;;;19.70;7.93;;;;;;;-144.73;76.18;54364.59;5027597;28;20036;-70
2023/04/21 08:22:37;;;;;;;15.35;7.88;;;;;;;-144.73;74.94;54391.28;5023995;28;20029;-70
2023/04/21 08:25:04;;;;;;;21.83;8.68;;;;;;;-144.73;75.86;54383.06;5030806;28;20037;-69
2023/04/21 08:27:30;;;;;;;15.25;8.05;;;;;;;-144.73;74.72;54370.75;5052633;28;20112;-71
2023/04/21 08:29:55;;;;;;;18.13;9.18;;;;;;;-144.73;75.09;54374.84;5025951;28;20059;-69
2023/04/21 08:32:25;;;;;;;20.55;9.02;;;;;;;-144.73;74.10;54358.44;5025684;28;20499;-69
2023/04/21 08:34:52;;;;;;;17.55;8.35;;;;;;;-144.73;73.91;54383.06;5042939;28;20027;-69
2023/04/21 08:37:18;;;;;;;19.65;9.25;;;;;;;-144.73;73.07;54387.19;5040723;28;20056;-69
2023/04/21 08:39:45;;;;;;;20.02;9.57;;;;;;;-144.73;73.24;54420.00;5042341;28;20106;-70
2023/04/21 08:42:13;;;;;;;14.82;8.55;;;;;;;-144.73;72.58;54358.44;5039635;28;20080;-70
2023/04/21 08:44:40;;;;;;;22.33;8.43;;;;;;;-144.73;72.47;54346.13;5042947;28;20511;-69
2023/04/21 08:47:11;;;;;;;21.23;8.60;;;;;;;-144.73;69.46;54387.19;5023381;28;20017;-70
2023/04/21 08:49:37;;;;;;;21.95;9.55;;;;;;;-144.73;70.20;54378.97;5044350;28;20065;-70
2023/04/21 08:52:03;;;;;;;19.42;9.10;;;;;;;-144.73;68.22;54370.75;5030516;28;20523;-70
2023/04/21 08:54:29;;;;;;;17.35;8.45;;;;;;;-144.73;68.91;54374.84;5030393;28;20051;-70
2023/04/21 08:56:55;;;;;;;17.73;8.43;;;;;;;-144.73;68.66;54378.97;5032824;28;20036;-69
2023/04/21 08:59:21;;;;;;;17.65;8.25;;;;;;;-144.73;68.64;54415.91;5030588;28;20029;-69
2023/04/21 09:02:05;;;;;;;18.08;8.40;;;;;;;-144.73;68.88;54346.13;5027318;28;20028;-69
2023/04/21 09:04:30;;;;;;;14.80;7.63;;;;;;;-144.73;67.66;54383.06;5049455;28;20033;-69
2023/04/21 09:06:55;;;;;;;19.88;7.95;;;;;;;-144.73;65.70;54374.84;5027103;28;20031;-70
2023/04/21 09:09:21;;;;;;;15.13;8.32;;;;;;;-144.73;63.58;54366.66;5035910;28;20171;-70
2023/04/21 09:11:55;;;;;;;16.52;8.07;;;;;;;-144.73;64.31;54366.66;5051988;28;20099;-70
2023/04/21 09:14:21;;;;;;;15.85;8.77;;;;;;;-144.73;64.11;54362.53;5027494;28;20483;-70
2023/04/21 09:16:58;;;;;;;13.43;7.75;;;;;;;-144.73;63.85;54360.50;5029916;28;20028;-70
2023/04/21 09:19:26;;;;;;;16.25;7.90;;;;;;;-144.73;64.26;54368.69;5046775;28;20029;-70
2023/04/21 09:21:51;;;;;;;14.73;7.90;;;;;;;-144.73;63.15;54387.19;5031856;28;20095;-68
2023/04/21 09:24:17;;;;;;;16.73;8.43;;;;;;;-144.73;62.56;54370.75;5025433;28;20108;-69
2023/04/21 09:26:42;;;;;;;20.75;7.63;;;;;;;-144.73;62.62;54389.22;5030364;28;20025;-69
2023/04/21 09:29:08;;;;;;;19.00;8.05;;;;;;;-144.73;62.66;54342.03;5030479;28;20052;-69
2023/04/21 09:31:34;;;;;;;15.18;8.15;;;;;;;-144.73;62.08;54376.91;5032960;28;20044;-70
2023/04/21 09:34:00;;;;;;;25.40;8.18;;;;;;;-144.73;62.24;54321.50;5030935;28;20028;-69
2023/04/21 09:36:28;;;;;;;12.27;7.20;;;;;;;-144.73;61.56;54387.19;5032574;28;20440;-70
2023/04/21 09:38:53;;;;;;;14.18;7.35;;;;;;;-144.73;61.70;54350.22;5033452;28;20029;-69
2023/04/21 09:41:19;;;;;;;22.38;8.63;;;;;;;-144.73;60.14;54383.06;5049387;28;20040;-69
2023/04/21 09:43:44;;;;;;;15.00;7.47;;;;;;;-144.73;60.18;54346.13;5029557;28;20084;-70
2023/04/21 09:46:11;;;;;;;18.00;8.07;;;;;;;-144.73;59.55;54350.22;5056264;28;20055;-70
2023/04/21 09:48:42;;;;;;;20.52;8.52;;;;;;;-144.73;60.09;54305.06;5030318;28;20025;-70
2023/04/21 09:51:08;;;;;;;14.38;6.70;;;;;;;-144.73;59.87;54381.00;5046623;28;20040;-70
2023/04/21 09:53:37;;;;;;;17.45;7.63;;;;;;;-144.73;58.69;54368.69;5034146;28;20065;-70
2023/04/21 09:56:04;;;;;;;13.73;7.38;;;;;;;-144.73;58.75;54329.72;5035342;28;20075;-70
2023/04/21 09:58:36;;;;;;;16.33;7.32;;;;;;;-144.73;58.06;54395.38;5046799;28;20028;-69
2023/04/21 10:01:03;;;;;;;28.23;9.43;;;;;;;-144.73;56.72;54337.91;5025957;28;20039;-70
2023/04/21 10:03:30;;;;;;;30.38;8.52;;;;;;;-144.73;56.98;54321.50;5028333;28;20041;-70
2023/04/21 10:05:55;;;;;;;15.27;8.55;;;;;;;-144.73;54.47;54342.03;5049551;28;20033;-69
2023/04/21 10:08:21;;;;;;;17.77;7.28;;;;;;;-144.73;53.61;54362.53;5030252;28;20025;-69
2023/04/21 10:10:47;;;;;;;15.63;7.70;;;;;;;-144.73;52.74;54346.13;5028130;28;20026;-69
2023/04/21 10:13:15;;;;;;;13.50;7.90;;;;;;;-144.73;52.99;54333.81;5030035;28;20159;-70
2023/04/21 10:15:40;;;;;;;18.23;8.25;;;;;;;-144.73;52.93;54333.81;5027624;28;20128;-69
2023/04/21 10:18:28;;;;;;;15.20;8.20;;;;;;;-144.73;52.40;54342.03;5020011;28;20102;-69
2023/04/21 10:21:00;;;;;;;15.75;7.85;;;;;;;-144.73;53.58;54333.81;5028202;28;20047;-69
2023/04/21 10:23:44;;;;;;;24.55;8.75;;;;;;;-144.73;54.15;54342.03;5049152;28;20020;-69
2023/04/21 10:26:16;;;;;;;19.60;7.55;;;;;;;-144.73;54.42;54364.59;5028090;28;20032;-70
2023/04/21 10:28:43;;;;;;;25.65;9.15;;;;;;;-144.73;54.72;54342.03;5027503;28;20116;-69
2023/04/21 10:31:22;;;;;;;18.48;8.02;;;;;;;-144.73;54.68;54358.44;5029334;28;20037;-70
2023/04/21 10:34:06;;;;;;;17.70;7.78;;;;;;;-144.73;53.63;54362.53;5033536;28;20028;-70
2023/04/21 10:36:52;;;;;;;13.63;7.22;;;;;;;-144.73;53.62;54333.81;5026757;28;20132;-70
2023/04/21 10:39:30;;;;;;;15.50;7.13;;;;;;;-144.73;52.73;54350.22;5016921;28;20045;-69
2023/04/21 10:41:57;;;;;;;17.15;6.90;;;;;;;-144.73;52.73;54362.53;5045112;28;20488;-70
2023/04/21 10:44:23;;;;;;;14.40;7.32;;;;;;;-144.73;52.18;54374.84;5027617;28;20052;-70
2023/04/21 10:46:50;;;;;;;16.60;7.20;;;;;;;-144.73;51.87;54370.75;5045695;28;20029;-70
2023/04/21 10:49:16;;;;;;;14.68;7.22;;;;;;;-144.73;52.13;54333.81;5045732;28;20067;-69
2023/04/21 10:52:02;;;;;;;14.40;7.13;;;;;;;-144.73;52.01;54329.72;5027681;28;20029;-70
2023/04/21 10:54:41;;;;;;;12.13;7.35;;;;;;;-144.73;52.83;54374.84;5026174;28;20041;-70
2023/04/21 10:57:09;;;;;;;13.48;6.80;;;;;;;-144.73;49.90;54354.34;5044610;28;20029;-70